sensor_id;sensor_type;location;lat;lon;timestamp;P1;durP1;ratioP1;P2;durP2;ratioP2
34557;SDS011;24708;48.888;8.736;2023-02-01T06:30:30;8.85;;;5.45;;
34557;SDS011;24708;48.888;8.736;2023-02-01T06:32:57;11.93;;;4.75;;
34557;SDS011;24708;48.888;8.736;2023-02-01T06:35:25;9.88;;;4.07;;
34557;SDS011;24708;48.888;8.736;2023-02-01T06:37:52;7.47;;;4.72;;
34557;SDS011;24708;48.888;8.736;2023-02-01T06:40:20;10.23;;;5.00;;
34557;SDS011;24708;48.888;8.736;2023-02-01T06:42:48;9.48;;;3.85;;
34557;SDS011;24708;48.888;8.736;2023-02-01T06:45:16;13.02;;;4.35;;
34557;SDS011;24708;48.888;8.736;2023-02-01T06:47:43;10.45;;;4.43;;
34557;SDS011;24708;48.888;8.736;2023-02-01T06:50:10;16.98;;;4.90;;
34557;SDS011;24708;48.888;8.736;2023-02-01T06:52:38;12.55;;;5.25;;
34557;SDS011;24708;48.888;8.736;2023-02-01T06:55:05;14.07;;;5.10;;
34557;SDS011;24708;48.888;8.736;2023-02-01T06:57:33;6.65;;;3.95;;
34557;SDS011;24708;48.888;8.736;2023-02-01T07:00:03;7.38;;;5.50;;
34557;SDS011;24708;48.888;8.736;2023-02-01T07:02:31;13.77;;;4.28;;
34557;SDS011;24708;48.888;8.736;2023-02-01T07:04:59;11.27;;;4.53;;
34557;SDS011;24708;48.888;8.736;2023-02-01T07:07:26;7.75;;;5.18;;
34557;SDS011;24708;48.888;8.736;2023-02-01T07:09:54;8.68;;;4.93;;
34557;SDS011;24708;48.888;8.736;2023-02-01T07:12:21;10.70;;;5.10;;
34557;SDS011;24708;48.888;8.736;2023-02-01T07:14:48;17.73;;;4.75;;
34557;SDS011;24708;48.888;8.736;2023-02-01T07:17:16;9.82;;;4.22;;
34557;SDS011;24708;48.888;8.736;2023-02-01T07:19:44;8.20;;;4.40;;
34557;SDS011;24708;48.888;8.736;2023-02-01T07:22:11;14.98;;;5.35;;
34557;SDS011;24708;48.888;8.736;2023-02-01T07:24:39;15.32;;;6.63;;
34557;SDS011;24708;48.888;8.736;2023-02-01T07:27:06;12.23;;;4.47;;
34557;SDS011;24708;48.888;8.736;2023-02-01T07:29:35;10.88;;;3.88;;
34557;SDS011;24708;48.888;8.736;2023-02-01T07:32:05;14.90;;;4.85;;
34557;SDS011;24708;48.888;8.736;2023-02-01T07:34:33;11.68;;;4.82;;
34557;SDS011;24708;48.888;8.736;2023-02-01T07:37:01;6.43;;;3.78;;
34557;SDS011;24708;48.888;8.736;2023-02-01T07:39:29;12.63;;;4.25;;
34557;SDS011;24708;48.888;8.736;2023-02-01T07:41:58;9.50;;;4.25;;
34557;SDS011;24708;48.888;8.736;2023-02-01T07:44:26;11.98;;;5.20;;
34557;SDS011;24708;48.888;8.736;2023-02-01T07:46:53;14.77;;;4.05;;
34557;SDS011;24708;48.888;8.736;2023-02-01T07:49:21;13.18;;;5.15;;
34557;SDS011;24708;48.888;8.736;2023-02-01T07:51:48;11.18;;;4.25;;
34557;SDS011;24708;48.888;8.736;2023-02-01T07:54:16;8.35;;;4.50;;
34557;SDS011;24708;48.888;8.736;2023-02-01T07:56:43;10.13;;;4.40;;
34557;SDS011;24708;48.888;8.736;2023-02-01T07:59:11;10.32;;;4.32;;
34557;SDS011;24708;48.888;8.736;2023-02-01T08:01:38;12.23;;;4.05;;
34557;SDS011;24708;48.888;8.736;2023-02-01T08:04:07;13.55;;;4.50;;
34557;SDS011;24708;48.888;8.736;2023-02-01T08:06:37;10.75;;;4.60;;
34557;SDS011;24708;48.888;8.736;2023-02-01T08:09:05;12.13;;;3.53;;
34557;SDS011;24708;48.888;8.736;2023-02-01T08:11:34;11.85;;;4.22;;
34557;SDS011;24708;48.888;8.736;2023-02-01T08:14:04;7.65;;;3.85;;
34557;SDS011;24708;48.888;8.736;2023-02-01T08:16:33;17.48;;;4.57;;
34557;SDS011;24708;48.888;8.736;2023-02-01T08:19:02;4.55;;;3.08;;
34557;SDS011;24708;48.888;8.736;2023-02-01T08:21:30;9.23;;;3.90;;
34557;SDS011;24708;48.888;8.736;2023-02-01T08:24:04;13.15;;;3.35;;
34557;SDS011;24708;48.888;8.736;2023-02-01T08:26:40;8.27;;;3.35;;
34557;SDS011;24708;48.888;8.736;2023-02-01T08:29:08;11.88;;;3.97;;
34557;SDS011;24708;48.888;8.736;2023-02-01T08:31:38;8.57;;;3.70;;
34557;SDS011;24708;48.888;8.736;2023-02-01T08:34:07;13.27;;;4.05;;
34557;SDS011;24708;48.888;8.736;2023-02-01T08:36:35;11.55;;;4.38;;
34557;SDS011;24708;48.888;8.736;2023-02-01T08:39:04;8.48;;;3.95;;
34557;SDS011;24708;48.888;8.736;2023-02-01T08:41:36;11.63;;;4.88;;
34557;SDS011;24708;48.888;8.736;2023-02-01T08:44:04;16.38;;;4.43;;
34557;SDS011;24708;48.888;8.736;2023-02-01T08:46:32;9.98;;;3.40;;
34557;SDS011;24708;48.888;8.736;2023-02-01T08:48:59;14.18;;;3.65;;
34557;SDS011;24708;48.888;8.736;2023-02-01T08:51:27;25.30;;;3.58;;
34557;SDS011;24708;48.888;8.736;2023-02-01T08:53:57;9.98;;;3.85;;
34557;SDS011;24708;48.888;8.736;2023-02-01T08:56:25;13.27;;;4.03;;
34557;SDS011;24708;48.888;8.736;2023-02-01T08:58:52;10.30;;;3.33;;
34557;SDS011;24708;48.888;8.736;2023-02-01T09:01:20;12.63;;;3.88;;
34557;SDS011;24708;48.888;8.736;2023-02-01T09:03:52;7.22;;;3.05;;
34557;SDS011;24708;48.888;8.736;2023-02-01T09:06:23;8.85;;;3.35;;
34557;SDS011;24708;48.888;8.736;2023-02-01T09:08:51;17.88;;;3.95;;
34557;SDS011;24708;48.888;8.736;2023-02-01T09:11:18;8.75;;;4.32;;
34557;SDS011;24708;48.888;8.736;2023-02-01T09:13:46;9.57;;;3.38;;
34557;SDS011;24708;48.888;8.736;2023-02-01T09:16:15;11.55;;;3.25;;
34557;SDS011;24708;48.888;8.736;2023-02-01T09:18:42;18.40;;;2.95;;
34557;SDS011;24708;48.888;8.736;2023-02-01T09:21:30;15.45;;;3.15;;
34557;SDS011;24708;48.888;8.736;2023-02-01T09:23:58;8.32;;;2.22;;
34557;SDS011;24708;48.888;8.736;2023-02-01T09:26:26;13.10;;;2.97;;
34557;SDS011;24708;48.888;8.736;2023-02-01T09:28:59;18.48;;;2.88;;
34557;SDS011;24708;48.888;8.736;2023-02-01T09:31:27;8.13;;;2.30;;
34557;SDS011;24708;48.888;8.736;2023-02-01T09:33:58;15.00;;;3.33;;
34557;SDS011;24708;48.888;8.736;2023-02-01T09:36:26;9.68;;;2.50;;
34557;SDS011;24708;48.888;8.736;2023-02-01T09:38:57;10.20;;;2.50;;
34557;SDS011;24708;48.888;8.736;2023-02-01T09:47:11;13.18;;;2.40;;
34557;SDS011;24708;48.888;8.736;2023-02-01T09:49:45;8.75;;;2.72;;
34557;SDS011;24708;48.888;8.736;2023-02-01T09:52:25;7.00;;;3.25;;
34557;SDS011;24708;48.888;8.736;2023-02-01T09:55:18;6.53;;;2.17;;
34557;SDS011;24708;48.888;8.736;2023-02-01T09:57:57;19.15;;;2.97;;
34557;SDS011;24708;48.888;8.736;2023-02-01T10:00:29;8.05;;;2.70;;
34557;SDS011;24708;48.888;8.736;2023-02-01T10:03:02;17.05;;;3.42;;
34557;SDS011;24708;48.888;8.736;2023-02-01T10:05:49;8.63;;;2.88;;
34557;SDS011;24708;48.888;8.736;2023-02-01T10:08:48;15.25;;;3.70;;
34557;SDS011;24708;48.888;8.736;2023-02-01T10:12:16;10.85;;;2.67;;
34557;SDS011;24708;48.888;8.736;2023-02-01T10:14:42;7.45;;;2.25;;
34557;SDS011;24708;48.888;8.736;2023-02-01T10:17:22;11.13;;;2.80;;
34557;SDS011;24708;48.888;8.736;2023-02-01T10:20:20;7.57;;;3.03;;
34557;SDS011;24708;48.888;8.736;2023-02-01T10:23:05;18.58;;;3.97;;
34557;SDS011;24708;48.888;8.736;2023-02-01T10:26:04;16.98;;;4.07;;
34557;SDS011;24708;48.888;8.736;2023-02-01T10:28:53;15.05;;;3.35;;
34557;SDS011;24708;48.888;8.736;2023-02-01T10:31:26;13.38;;;3.10;;
34557;SDS011;24708;48.888;8.736;2023-02-01T10:33:59;20.98;;;3.75;;
34557;SDS011;24708;48.888;8.736;2023-02-01T10:36:29;11.25;;;2.67;;
34557;SDS011;24708;48.888;8.736;2023-02-01T10:39:03;6.57;;;2.88;;
34557;SDS011;24708;48.888;8.736;2023-02-01T10:41:35;19.88;;;2.88;;
34557;SDS011;24708;48.888;8.736;2023-02-01T10:44:07;15.80;;;3.45;;
34557;SDS011;24708;48.888;8.736;2023-02-01T10:46:39;7.45;;;2.80;;
34557;SDS011;24708;48.888;8.736;2023-02-01T10:49:11;9.05;;;2.60;;
34557;SDS011;24708;48.888;8.736;2023-02-01T10:51:47;9.07;;;2.50;;
34557;SDS011;24708;48.888;8.736;2023-02-01T10:54:21;11.70;;;2.47;;
34557;SDS011;24708;48.888;8.736;2023-02-01T10:56:59;15.18;;;3.00;;
34557;SDS011;24708;48.888;8.736;2023-02-01T10:59:32;14.23;;;2.55;;
34557;SDS011;24708;48.888;8.736;2023-02-01T11:02:35;5.68;;;2.78;;
34557;SDS011;24708;48.888;8.736;2023-02-01T11:04:59;9.55;;;2.53;;
34557;SDS011;24708;48.888;8.736;2023-02-01T11:07:28;9.18;;;2.33;;
34557;SDS011;24708;48.888;8.736;2023-02-01T11:09:56;16.90;;;2.90;;
34557;SDS011;24708;48.888;8.736;2023-02-01T11:12:31;11.13;;;3.10;;
34557;SDS011;24708;48.888;8.736;2023-02-01T11:15:19;9.80;;;2.92;;
34557;SDS011;24708;48.888;8.736;2023-02-01T11:18:07;7.25;;;2.30;;
34557;SDS011;24708;48.888;8.736;2023-02-01T11:20:43;9.65;;;2.90;;
34557;SDS011;24708;48.888;8.736;2023-02-01T11:23:16;12.95;;;2.53;;
34557;SDS011;24708;48.888;8.736;2023-02-01T11:28:25;8.05;;;2.67;;
34557;SDS011;24708;48.888;8.736;2023-02-01T11:30:57;6.55;;;2.25;;
34557;SDS011;24708;48.888;8.736;2023-02-01T11:33:30;12.35;;;2.15;;
34557;SDS011;24708;48.888;8.736;2023-02-01T11:38:54;18.52;;;2.60;;
34557;SDS011;24708;48.888;8.736;2023-02-01T11:41:44;17.77;;;3.33;;
34557;SDS011;24708;48.888;8.736;2023-02-01T11:44:43;17.95;;;3.03;;
34557;SDS011;24708;48.888;8.736;2023-02-01T11:47:17;17.90;;;3.35;;
34557;SDS011;24708;48.888;8.736;2023-02-01T11:49:49;11.50;;;2.80;;
34557;SDS011;24708;48.888;8.736;2023-02-01T11:52:33;13.10;;;2.80;;
34557;SDS011;24708;48.888;8.736;2023-02-01T12:12:39;12.68;;;3.03;;
34557;SDS011;24708;48.888;8.736;2023-02-01T12:15:19;14.65;;;4.20;;
34557;SDS011;24708;48.888;8.736;2023-02-01T12:18:02;11.48;;;3.42;;
34557;SDS011;24708;48.888;8.736;2023-02-01T12:23:40;7.97;;;2.95;;
34557;SDS011;24708;48.888;8.736;2023-02-01T12:26:50;4.43;;;2.15;;
34557;SDS011;24708;48.888;8.736;2023-02-01T12:32:37;12.32;;;2.80;;
34557;SDS011;24708;48.888;8.736;2023-02-01T12:38:17;16.38;;;3.33;;
34557;SDS011;24708;48.888;8.736;2023-02-01T12:41:13;16.00;;;3.10;;
34557;SDS011;24708;48.888;8.736;2023-02-01T12:43:57;13.13;;;2.70;;
34557;SDS011;24708;48.888;8.736;2023-02-01T12:46:30;16.80;;;3.00;;
34557;SDS011;24708;48.888;8.736;2023-02-01T12:49:01;15.98;;;3.47;;
34557;SDS011;24708;48.888;8.736;2023-02-01T12:51:42;6.63;;;2.47;;
34557;SDS011;24708;48.888;8.736;2023-02-01T12:54:17;8.32;;;3.00;;
34557;SDS011;24708;48.888;8.736;2023-02-01T12:56:49;6.60;;;3.05;;
34557;SDS011;24708;48.888;8.736;2023-02-01T12:59:24;10.00;;;3.97;;
34557;SDS011;24708;48.888;8.736;2023-02-01T13:02:03;15.95;;;3.58;;
34557;SDS011;24708;48.888;8.736;2023-02-01T13:04:56;23.58;;;3.28;;
34557;SDS011;24708;48.888;8.736;2023-02-01T13:07:34;18.35;;;2.70;;
34557;SDS011;24708;48.888;8.736;2023-02-01T13:10:13;7.70;;;3.22;;
34557;SDS011;24708;48.888;8.736;2023-02-01T13:12:56;14.25;;;2.78;;
34557;SDS011;24708;48.888;8.736;2023-02-01T13:15:30;8.60;;;3.17;;
34557;SDS011;24708;48.888;8.736;2023-02-01T13:18:03;8.77;;;3.05;;
34557;SDS011;24708;48.888;8.736;2023-02-01T13:20:34;13.23;;;2.80;;
34557;SDS011;24708;48.888;8.736;2023-02-01T13:23:11;11.20;;;2.80;;
34557;SDS011;24708;48.888;8.736;2023-02-01T13:26:01;11.13;;;3.58;;
34557;SDS011;24708;48.888;8.736;2023-02-01T13:29:01;12.77;;;2.67;;
34557;SDS011;24708;48.888;8.736;2023-02-01T13:37:23;5.72;;;2.55;;
34557;SDS011;24708;48.888;8.736;2023-02-01T13:40:50;13.38;;;3.92;;
34557;SDS011;24708;48.888;8.736;2023-02-01T13:43:12;15.38;;;3.20;;
34557;SDS011;24708;48.888;8.736;2023-02-01T13:45:48;8.95;;;2.90;;
34557;SDS011;24708;48.888;8.736;2023-02-01T13:48:22;10.32;;;2.55;;
34557;SDS011;24708;48.888;8.736;2023-02-01T13:50:55;15.23;;;2.83;;
34557;SDS011;24708;48.888;8.736;2023-02-01T13:53:29;12.25;;;2.40;;
34557;SDS011;24708;48.888;8.736;2023-02-01T13:56:03;15.00;;;3.60;;
34557;SDS011;24708;48.888;8.736;2023-02-01T13:58:38;5.63;;;3.20;;
34557;SDS011;24708;48.888;8.736;2023-02-01T14:04:02;9.50;;;3.50;;
34557;SDS011;24708;48.888;8.736;2023-02-01T14:12:41;8.07;;;2.90;;
34557;SDS011;24708;48.888;8.736;2023-02-01T14:15:17;8.27;;;3.70;;
34557;SDS011;24708;48.888;8.736;2023-02-01T14:17:50;10.23;;;3.92;;
34557;SDS011;24708;48.888;8.736;2023-02-01T14:20:48;13.18;;;2.85;;
34557;SDS011;24708;48.888;8.736;2023-02-01T14:23:11;20.38;;;3.55;;
34557;SDS011;24708;48.888;8.736;2023-02-01T14:25:41;8.85;;;2.53;;
34557;SDS011;24708;48.888;8.736;2023-02-01T14:28:11;3.67;;;2.72;;
34557;SDS011;24708;48.888;8.736;2023-02-01T14:30:48;17.83;;;3.70;;
34557;SDS011;24708;48.888;8.736;2023-02-01T14:33:18;17.27;;;3.67;;
34557;SDS011;24708;48.888;8.736;2023-02-01T14:38:34;22.98;;;3.75;;
34557;SDS011;24708;48.888;8.736;2023-02-01T14:41:12;20.50;;;3.88;;
34557;SDS011;24708;48.888;8.736;2023-02-01T14:43:50;9.35;;;3.05;;
34557;SDS011;24708;48.888;8.736;2023-02-01T14:49:39;17.20;;;3.50;;
34557;SDS011;24708;48.888;8.736;2023-02-01T14:52:17;8.35;;;2.63;;
34557;SDS011;24708;48.888;8.736;2023-02-01T14:54:51;17.48;;;2.90;;
34557;SDS011;24708;48.888;8.736;2023-02-01T14:57:23;17.33;;;3.85;;
34557;SDS011;24708;48.888;8.736;2023-02-01T14:59:55;5.07;;;3.78;;
34557;SDS011;24708;48.888;8.736;2023-02-01T15:02:31;8.77;;;2.35;;
34557;SDS011;24708;48.888;8.736;2023-02-01T15:05:01;9.05;;;2.60;;
34557;SDS011;24708;48.888;8.736;2023-02-01T15:07:41;8.77;;;2.35;;
34557;SDS011;24708;48.888;8.736;2023-02-01T15:10:09;7.57;;;2.15;;
34557;SDS011;24708;48.888;8.736;2023-02-01T15:12:36;17.10;;;3.47;;
34557;SDS011;24708;48.888;8.736;2023-02-01T15:17:53;18.77;;;3.45;;
34557;SDS011;24708;48.888;8.736;2023-02-01T15:20:23;15.45;;;3.60;;
34557;SDS011;24708;48.888;8.736;2023-02-01T15:22:54;14.77;;;4.13;;
34557;SDS011;24708;48.888;8.736;2023-02-01T15:25:32;13.75;;;3.03;;
34557;SDS011;24708;48.888;8.736;2023-02-01T15:28:03;8.40;;;3.28;;
34557;SDS011;24708;48.888;8.736;2023-02-01T15:30:33;8.50;;;2.67;;
34557;SDS011;24708;48.888;8.736;2023-02-01T15:33:04;8.68;;;2.97;;
34557;SDS011;24708;48.888;8.736;2023-02-01T15:35:37;13.40;;;3.65;;
34557;SDS011;24708;48.888;8.736;2023-02-01T15:41:05;5.85;;;2.70;;
34557;SDS011;24708;48.888;8.736;2023-02-01T15:44:02;21.15;;;3.47;;
34557;SDS011;24708;48.888;8.736;2023-02-01T15:46:35;23.98;;;3.55;;
34557;SDS011;24708;48.888;8.736;2023-02-01T15:49:04;14.30;;;3.17;;
34557;SDS011;24708;48.888;8.736;2023-02-01T15:51:46;16.40;;;3.55;;
34557;SDS011;24708;48.888;8.736;2023-02-01T15:54:17;12.00;;;3.33;;
34557;SDS011;24708;48.888;8.736;2023-02-01T15:56:49;20.00;;;3.53;;
34557;SDS011;24708;48.888;8.736;2023-02-01T15:59:21;12.10;;;2.58;;
34557;SDS011;24708;48.888;8.736;2023-02-01T16:01:51;5.93;;;2.95;;
34557;SDS011;24708;48.888;8.736;2023-02-01T16:04:20;13.23;;;3.83;;
34557;SDS011;24708;48.888;8.736;2023-02-01T16:06:54;17.38;;;3.10;;
34557;SDS011;24708;48.888;8.736;2023-02-01T16:10:03;15.40;;;3.40;;
34557;SDS011;24708;48.888;8.736;2023-02-01T16:14:58;10.68;;;3.70;;
34557;SDS011;24708;48.888;8.736;2023-02-01T16:17:25;12.68;;;3.08;;
34557;SDS011;24708;48.888;8.736;2023-02-01T16:19:52;10.45;;;3.38;;
34557;SDS011;24708;48.888;8.736;2023-02-01T16:22:19;9.95;;;3.13;;
34557;SDS011;24708;48.888;8.736;2023-02-01T16:24:47;18.75;;;5.38;;
34557;SDS011;24708;48.888;8.736;2023-02-01T16:27:14;7.90;;;2.95;;
34557;SDS011;24708;48.888;8.736;2023-02-01T16:29:41;10.93;;;3.35;;
34557;SDS011;24708;48.888;8.736;2023-02-01T16:32:23;15.35;;;3.53;;
34557;SDS011;24708;48.888;8.736;2023-02-01T16:34:53;16.83;;;3.85;;
34557;SDS011;24708;48.888;8.736;2023-02-01T16:37:21;10.95;;;3.50;;
34557;SDS011;24708;48.888;8.736;2023-02-01T16:39:50;18.70;;;3.22;;
34557;SDS011;24708;48.888;8.736;2023-02-01T16:42:17;11.38;;;3.22;;
34557;SDS011;24708;48.888;8.736;2023-02-01T16:44:45;18.13;;;4.43;;
34557;SDS011;24708;48.888;8.736;2023-02-01T16:47:14;13.98;;;3.20;;
34557;SDS011;24708;48.888;8.736;2023-02-01T16:49:44;21.03;;;4.10;;
34557;SDS011;24708;48.888;8.736;2023-02-01T16:52:16;11.25;;;3.83;;
34557;SDS011;24708;48.888;8.736;2023-02-01T16:54:46;16.75;;;3.28;;
34557;SDS011;24708;48.888;8.736;2023-02-01T16:57:15;9.20;;;3.00;;
34557;SDS011;24708;48.888;8.736;2023-02-01T16:59:46;13.55;;;3.85;;
